Time;durP1;ratioP1;P1;durP2;ratioP2;P2;SDS_P1;SDS_P2;PMS_P1;PMS_P2;Temp;Humidity;BMP_temperature;BMP_pressure;BME280_temperature;BME280_humidity;BME280_pressure;Samples;Min_cycle;Max_cycle;Signal;HPM_P1;HPM_P2
2022/05/31 00:02:14;;;;;;;9.68;4.82;;;6.00;99.90;;;;;;5030871;28;20041;-55
2022/05/31 00:04:40;;;;;;;6.70;4.60;;;6.00;99.90;;;;;;5031643;28;20037;-55
2022/05/31 00:07:05;;;;;;;7.82;4.93;;;6.80;99.90;;;;;;5031295;28;20122;-55
2022/05/31 00:09:33;;;;;;;8.02;4.80;;;7.10;99.90;;;;;;5027059;28;20041;-56
2022/05/31 00:11:58;;;;;;;7.78;4.65;;;6.10;99.90;;;;;;5011600;28;20496;-56
2022/05/31 00:14:25;;;;;;;6.32;5.07;;;6.10;99.90;;;;;;5011718;28;20103;-55
2022/05/31 00:16:51;;;;;;;8.73;4.80;;;6.10;99.90;;;;;;5011644;28;20057;-55
2022/05/31 00:19:18;;;;;;;7.28;5.03;;;6.30;99.90;;;;;;5012147;28;20038;-55
2022/05/31 00:21:56;;;;;;;9.98;5.47;;;7.00;99.90;;;;;;5011361;28;20061;-55
2022/05/31 00:24:22;;;;;;;6.50;4.70;;;6.10;99.90;;;;;;5011879;28;20042;-55
2022/05/31 00:26:48;;;;;;;8.25;4.95;;;6.00;99.90;;;;;;5011696;28;20125;-55
2022/05/31 00:29:14;;;;;;;8.07;4.57;;;6.10;99.90;;;;;;5011637;28;20048;-56
2022/05/31 00:31:44;;;;;;;8.35;4.85;;;6.10;99.90;;;;;;5011394;28;20495;-56
2022/05/31 00:34:11;;;;;;;9.93;5.85;;;6.20;99.90;;;;;;5011437;28;20783;-55
2022/05/31 00:36:40;;;;;;;9.52;5.70;;;6.20;99.90;;;;;;5011125;28;20125;-55
2022/05/31 00:39:06;;;;;;;7.85;4.60;;;6.40;99.90;;;;;;5011772;28;20120;-51
2022/05/31 00:41:34;;;;;;;7.22;3.63;;;6.10;99.90;;;;;;5011432;28;20120;-55
2022/05/31 00:44:16;;;;;;;7.18;4.18;;;6.10;99.90;;;;;;5011739;28;20045;-56
2022/05/31 00:46:53;;;;;;;5.43;3.30;;;6.00;99.90;;;;;;5011347;28;20413;-56
2022/05/31 00:49:27;;;;;;;3.80;2.00;;;6.00;99.90;;;;;;5011949;28;20045;-55
2022/05/31 00:51:56;;;;;;;2.63;1.60;;;5.90;99.90;;;;;;5011992;28;20045;-56
2022/05/31 00:54:25;;;;;;;2.42;1.58;;;5.90;99.90;;;;;;5011741;28;20037;-56
2022/05/31 00:56:53;;;;;;;3.85;1.80;;;7.00;99.90;;;;;;5011220;28;20050;-56
2022/05/31 00:59:37;;;;;;;3.58;2.08;;;5.90;99.90;;;;;;5011396;28;20420;-56
2022/05/31 01:02:05;;;;;;;3.22;1.70;;;5.90;99.90;;;;;;5011222;28;20038;-55
2022/05/31 01:04:37;;;;;;;4.00;2.05;;;5.90;99.90;;;;;;5011032;28;20046;-55
2022/05/31 01:07:03;;;;;;;4.57;2.80;;;5.90;99.90;;;;;;5010919;28;20058;-56
2022/05/31 01:09:30;;;;;;;5.72;2.90;;;6.00;99.90;;;;;;5015137;28;20080;-55
2022/05/31 01:11:57;;;;;;;5.05;2.22;;;6.00;99.90;;;;;;5030128;28;20095;-55
2022/05/31 01:14:23;;;;;;;5.50;2.38;;;6.10;99.90;;;;;;5030054;28;20104;-55
2022/05/31 01:17:17;;;;;;;4.40;2.22;;;6.10;99.90;;;;;;5030402;28;20115;-55
2022/05/31 01:19:55;;;;;;;4.72;2.65;;;6.20;99.90;;;;;;5030350;28;20125;-55
2022/05/31 01:22:23;;;;;;;4.15;2.33;;;6.20;99.90;;;;;;5029181;28;20069;-55
2022/05/31 01:25:06;;;;;;;5.78;3.25;;;6.20;99.90;;;;;;5030265;28;20382;-55
2022/05/31 01:27:59;;;;;;;7.63;4.35;;;6.30;99.90;;;;;;5030267;28;20056;-56
2022/05/31 01:30:29;;;;;;;6.68;4.45;;;6.30;99.90;;;;;;5030428;28;20042;-55
2022/05/31 01:33:14;;;;;;;11.05;5.05;;;6.30;99.90;;;;;;5030235;28;20041;-55
2022/05/31 01:35:40;;;;;;;8.18;4.82;;;6.40;99.90;;;;;;5030563;28;20107;-55
2022/05/31 01:38:21;;;;;;;6.53;4.72;;;6.40;99.90;;;;;;5030223;28;20104;-55
2022/05/31 01:41:19;;;;;;;6.07;4.28;;;6.40;99.90;;;;;;5030140;28;20045;-55
2022/05/31 01:43:47;;;;;;;7.43;4.57;;;8.00;99.90;;;;;;5030152;28;20116;-55
2022/05/31 01:46:19;;;;;;;8.43;4.85;;;6.50;99.90;;;;;;5030216;28;20460;-56
2022/05/31 01:48:45;;;;;;;7.72;5.75;;;6.50;99.90;;;;;;5030529;28;20119;-55
2022/05/31 01:51:13;;;;;;;9.73;3.67;;;6.50;99.90;;;;;;5030320;28;20042;-55
2022/05/31 01:53:40;;;;;;;7.60;5.00;;;6.60;99.90;;;;;;5029941;28;20033;-55
2022/05/31 01:56:08;;;;;;;5.85;3.70;;;6.60;99.90;;;;;;5028693;28;20571;-55
2022/05/31 01:58:37;;;;;;;19.98;4.53;;;6.60;99.90;;;;;;5029825;28;20045;-55
2022/05/31 02:01:04;;;;;;;5.78;3.58;;;8.90;99.90;;;;;;5029902;28;20185;-55
2022/05/31 02:03:31;;;;;;;6.22;4.50;;;6.60;99.90;;;;;;5029729;28;20033;-55
2022/05/31 02:05:57;;;;;;;6.55;4.63;;;6.60;99.90;;;;;;5029407;28;20045;-55
2022/05/31 02:08:24;;;;;;;9.05;4.95;;;6.60;99.90;;;;;;5029280;28;20050;-55
2022/05/31 02:10:50;;;;;;;6.30;4.53;;;6.70;99.90;;;;;;5014121;28;20038;-55
2022/05/31 02:13:18;;;;;;;8.77;5.35;;;6.60;99.90;;;;;;5009819;28;20042;-55
2022/05/31 02:15:45;;;;;;;9.38;5.50;;;6.70;99.90;;;;;;5009559;28;20137;-55
2022/05/31 02:18:12;;;;;;;6.40;4.50;;;6.70;99.90;;;;;;5009525;28;20038;-55
2022/05/31 02:20:38;;;;;;;6.32;4.50;;;6.70;99.90;;;;;;5009599;28;20050;-55
2022/05/31 02:23:04;;;;;;;7.28;4.32;;;6.70;99.90;;;;;;5009864;28;20034;-55
2022/05/31 02:25:30;;;;;;;8.18;5.03;;;6.70;99.90;;;;;;5009298;28;20120;-55
2022/05/31 02:27:56;;;;;;;7.13;4.85;;;6.70;99.90;;;;;;5009468;28;20402;-55
2022/05/31 02:30:22;;;;;;;6.90;4.80;;;6.70;99.90;;;;;;5009568;28;20103;-55
2022/05/31 02:32:48;;;;;;;5.60;4.55;;;6.70;99.90;;;;;;5009202;28;20509;-55
2022/05/31 02:35:14;;;;;;;6.05;4.55;;;6.70;99.90;;;;;;5009440;28;20124;-55
2022/05/31 02:37:40;;;;;;;7.55;5.47;;;6.80;99.90;;;;;;5008137;28;20077;-55
2022/05/31 02:40:06;;;;;;;7.75;5.55;;;6.90;99.90;;;;;;5009707;28;20076;-55
2022/05/31 02:42:32;;;;;;;8.77;5.43;;;6.80;99.90;;;;;;5008078;28;20061;-55
2022/05/31 02:44:58;;;;;;;6.07;5.05;;;6.80;99.90;;;;;;5007858;28;20048;-56
2022/05/31 02:47:24;;;;;;;6.82;4.78;;;6.80;99.90;;;;;;5009336;28;20046;-55
2022/05/31 02:49:50;;;;;;;7.13;5.57;;;6.80;99.90;;;;;;5007838;28;20042;-55
2022/05/31 02:52:16;;;;;;;7.03;5.45;;;6.80;99.90;;;;;;5009217;28;20037;-55
2022/05/31 02:54:43;;;;;;;7.50;5.38;;;6.80;99.90;;;;;;5009466;28;20144;-55
2022/05/31 02:57:09;;;;;;;7.60;5.22;;;6.80;99.90;;;;;;5008949;28;20099;-56
2022/05/31 02:59:34;;;;;;;7.88;5.32;;;6.80;99.90;;;;;;5009075;28;20072;-55
2022/05/31 03:02:00;;;;;;;7.45;5.60;;;6.80;99.90;;;;;;5009083;28;20125;-56
2022/05/31 03:04:26;;;;;;;8.35;5.90;;;7.80;99.90;;;;;;5008994;28;20045;-55
2022/05/31 03:06:52;;;;;;;8.88;5.75;;;6.80;99.90;;;;;;5008733;28;20170;-55
2022/05/31 03:09:17;;;;;;;8.68;5.95;;;6.90;99.90;;;;;;5011696;28;20053;-55
2022/05/31 03:11:47;;;;;;;9.30;6.40;;;6.90;99.90;;;;;;5028704;28;20458;-55
2022/05/31 03:14:22;;;;;;;7.45;5.93;;;6.90;99.90;;;;;;5027227;28;20057;-55
2022/05/31 03:16:55;;;;;;;8.40;6.82;;;6.90;99.90;;;;;;5028182;28;20128;-54
2022/05/31 03:19:27;;;;;;;9.20;6.60;;;7.00;99.90;;;;;;5028508;28;20528;-55
2022/05/31 03:21:59;;;;;;;10.23;7.32;;;7.00;99.90;;;;;;5029114;28;20389;-48
2022/05/31 03:24:29;;;;;;;;;;;7.00;99.90;;;;;;5028884;28;20041;-56
2022/05/31 03:26:58;;;;;;;9.43;6.95;;;7.00;99.90;;;;;;5028146;28;19966;-55
2022/05/31 03:29:24;;;;;;;8.88;7.40;;;7.10;99.90;;;;;;5028179;28;20053;-55
2022/05/31 03:31:50;;;;;;;8.38;6.85;;;7.10;99.90;;;;;;5028171;28;20040;-56
2022/05/31 03:34:16;;;;;;;9.20;6.97;;;7.30;99.90;;;;;;5028343;28;20380;-56
2022/05/31 03:36:42;;;;;;;9.02;7.32;;;7.10;99.90;;;;;;5030431;28;20052;-56
2022/05/31 03:39:08;;;;;;;10.07;7.25;;;7.10;99.90;;;;;;5032589;28;20083;-47
2022/05/31 03:41:35;;;;;;;8.05;6.78;;;7.00;99.90;;;;;;5032916;28;20072;-55
2022/05/31 03:44:01;;;;;;;9.68;7.30;;;7.20;99.90;;;;;;5029954;28;20034;-56
2022/05/31 03:46:27;;;;;;;10.45;7.38;;;7.20;99.90;;;;;;5023244;28;20508;-55
2022/05/31 03:48:53;;;;;;;11.38;7.15;;;7.20;99.90;;;;;;5023312;28;20037;-56
2022/05/31 03:51:18;;;;;;;10.57;7.32;;;7.30;99.90;;;;;;5012540;28;20046;-56
2022/05/31 03:53:44;;;;;;;11.65;7.70;;;7.30;99.90;;;;;;5016671;28;20037;-56
2022/05/31 03:56:12;;;;;;;12.50;8.32;;;7.30;99.90;;;;;;5020690;28;20049;-56
2022/05/31 03:58:38;;;;;;;13.63;8.40;;;7.30;99.90;;;;;;5013014;28;20052;-49
2022/05/31 04:01:04;;;;;;;18.05;8.30;;;7.40;99.90;;;;;;5002422;28;20124;-49
2022/05/31 04:03:31;;;;;;;14.93;8.02;;;7.40;99.90;;;;;;5005795;28;20117;-47
2022/05/31 04:05:56;;;;;;;11.95;8.63;;;7.50;99.90;;;;;;5020218;28;20079;-47
2022/05/31 04:08:24;;;;;;;12.55;8.95;;;7.50;99.90;;;;;;5020238;28;20497;-57
2022/05/31 04:10:49;;;;;;;12.93;7.75;;;7.50;99.90;;;;;;5017816;28;20038;-57
2022/05/31 04:13:16;;;;;;;13.60;8.95;;;7.50;99.90;;;;;;5017455;28;20033;-57
2022/05/31 04:15:42;;;;;;;12.85;8.27;;;7.50;99.90;;;;;;5015528;28;20030;-57
2022/05/31 04:18:08;;;;;;;13.48;9.70;;;7.60;99.90;;;;;;5018219;28;20046;-49
2022/05/31 04:20:37;;;;;;;12.50;7.90;;;7.60;99.90;;;;;;5019521;28;20038;-51
2022/05/31 04:25:48;;;;;;;10.38;7.43;;;7.70;99.90;;;;;;5029564;28;20647;-42
2022/05/31 04:28:15;;;;;;;14.45;8.30;;;8.10;99.90;;;;;;5033055;28;20057;-43
2022/05/31 04:30:45;;;;;;;10.77;8.60;;;7.80;99.90;;;;;;5031804;28;20116;-42
2022/05/31 04:33:11;;;;;;;12.57;8.35;;;7.90;99.90;;;;;;5032921;28;20073;-41
2022/05/31 04:35:37;;;;;;;12.45;9.52;;;7.90;99.90;;;;;;5033141;28;20041;-41
2022/05/31 04:38:03;;;;;;;13.10;10.65;;;8.00;99.90;;;;;;5033035;28;20034;-42
2022/05/31 04:40:28;;;;;;;11.95;9.40;;;8.00;99.90;;;;;;5033009;28;20103;-43
2022/05/31 04:42:54;;;;;;;12.85;9.05;;;8.10;99.90;;;;;;5033187;28;20488;-42
2022/05/31 04:45:20;;;;;;;12.02;9.20;;;8.20;99.90;;;;;;5033095;28;20038;-41
2022/05/31 04:47:46;;;;;;;12.10;9.10;;;9.60;99.90;;;;;;5032983;28;20138;-42
2022/05/31 04:50:12;;;;;;;13.55;8.95;;;8.30;99.90;;;;;;5032624;28;20049;-42
2022/05/31 04:52:38;;;;;;;9.93;8.75;;;9.30;99.90;;;;;;5032694;28;20045;-42
2022/05/31 04:55:04;;;;;;;11.80;9.02;;;8.40;99.90;;;;;;5032287;28;20064;-42
2022/05/31 04:57:30;;;;;;;10.65;9.00;;;8.50;99.90;;;;;;5032898;28;20084;-42
2022/05/31 04:59:56;;;;;;;21.17;10.20;;;8.60;99.90;;;;;;5032320;28;20526;-41
2022/05/31 05:02:21;;;;;;;16.90;8.40;;;8.70;99.90;;;;;;5032247;28;20129;-42
2022/05/31 05:04:47;;;;;;;13.68;9.02;;;8.70;99.90;;;;;;5032781;28;20048;-41
2022/05/31 05:07:13;;;;;;;10.00;7.85;;;8.80;99.90;;;;;;5032074;28;20149;-42
2022/05/31 05:09:38;;;;;;;9.63;7.40;;;8.80;99.90;;;;;;5026805;28;20038;-42
2022/05/31 05:12:04;;;;;;;9.23;7.72;;;8.80;99.90;;;;;;5012825;28;20045;-43
2022/05/31 05:14:30;;;;;;;12.35;8.23;;;8.90;99.90;;;;;;5012883;28;20092;-41
2022/05/31 05:16:56;;;;;;;9.75;7.15;;;9.00;99.90;;;;;;5012879;28;20482;-42
2022/05/31 05:19:22;;;;;;;8.63;7.25;;;9.30;99.90;;;;;;5012524;28;20540;-44
2022/05/31 05:21:47;;;;;;;8.40;6.32;;;9.70;99.90;;;;;;5012640;28;20116;-42
2022/05/31 05:24:13;;;;;;;8.73;7.20;;;9.20;99.90;;;;;;5011997;28;20041;-42
2022/05/31 05:26:39;;;;;;;8.23;7.40;;;9.20;99.90;;;;;;5012541;28;20053;-43
2022/05/31 05:31:53;;;;;;;10.60;7.10;;;9.50;99.90;;;;;;5012593;28;20400;-44
2022/05/31 05:34:19;;;;;;;8.27;7.18;;;9.50;99.90;;;;;;5012017;28;20050;-42
2022/05/31 05:36:45;;;;;;;7.82;7.03;;;9.60;99.90;;;;;;5012243;28;20034;-42
2022/05/31 05:39:11;;;;;;;9.82;7.03;;;10.60;99.90;;;;;;5012275;28;20046;-43
2022/05/31 05:41:40;;;;;;;7.65;6.85;;;9.70;99.90;;;;;;5012141;28;20079;-44
2022/05/31 05:44:06;;;;;;;8.45;6.45;;;9.80;99.90;;;;;;5012228;28;20564;-42
2022/05/31 05:46:33;;;;;;;6.70;6.10;;;10.00;99.90;;;;;;5012062;28;20408;-42
2022/05/31 05:48:58;;;;;;;7.22;5.55;;;10.10;99.90;;;;;;5012014;28;20064;-43
2022/05/31 05:51:29;;;;;;;8.43;6.00;;;11.30;99.90;;;;;;5012091;28;20046;-42
2022/05/31 05:53:56;;;;;;;9.80;6.20;;;11.10;99.90;;;;;;5012306;28;20058;-42
2022/05/31 05:56:23;;;;;;;5.90;5.18;;;10.60;99.90;;;;;;5011775;28;20046;-44
2022/05/31 05:58:48;;;;;;;5.45;4.80;;;11.10;99.90;;;;;;5010036;28;20382;-42
2022/05/31 06:01:24;;;;;;;7.72;5.35;;;11.30;99.90;;;;;;5012049;28;20095;-43
2022/05/31 06:03:58;;;;;;;7.07;4.80;;;11.00;99.90;;;;;;5012233;28;20069;-43
2022/05/31 06:06:27;;;;;;;8.30;5.07;;;11.10;99.90;;;;;;5011925;28;20137;-43
2022/05/31 06:08:59;;;;;;;10.02;5.28;;;11.10;99.90;;;;;;5012032;28;20107;-42
2022/05/31 06:11:31;;;;;;;7.95;4.90;;;11.20;99.90;;;;;;5011947;28;20091;-43
2022/05/31 06:14:16;;;;;;;6.10;4.95;;;11.30;99.90;;;;;;5012003;28;20053;-43
2022/05/31 06:16:52;;;;;;;8.00;5.25;;;11.50;99.90;;;;;;5011824;28;20485;-43
2022/05/31 06:19:34;;;;;;;7.45;4.53;;;11.90;99.90;;;;;;5011749;28;20077;-43
2022/05/31 06:22:02;;;;;;;7.45;4.50;;;11.70;99.90;;;;;;5012171;28;20116;-43
2022/05/31 06:24:30;;;;;;;6.38;4.25;;;12.30;99.90;;;;;;5013955;28;20081;-42
2022/05/31 06:26:56;;;;;;;5.45;4.40;;;11.90;99.90;;;;;;5020509;28;20049;-43
2022/05/31 06:29:22;;;;;;;4.75;3.95;;;11.90;99.90;;;;;;5022010;28;20052;-43
2022/05/31 06:31:48;;;;;;;7.38;4.68;;;12.00;99.90;;;;;;5019994;28;20049;-44
2022/05/31 06:34:13;;;;;;;7.55;3.85;;;12.00;99.90;;;;;;5022182;28;20069;-43
2022/05/31 06:36:42;;;;;;;5.63;4.00;;;12.10;99.90;;;;;;5020726;28;20042;-43
2022/05/31 06:39:08;;;;;;;8.63;5.28;;;12.20;99.90;;;;;;5020246;28;20044;-43
2022/05/31 06:41:35;;;;;;;4.93;4.03;;;12.30;99.90;;;;;;5021854;28;20504;-43
2022/05/31 06:44:01;;;;;;;4.50;3.60;;;12.40;99.90;;;;;;5021141;28;20076;-43
2022/05/31 06:46:27;;;;;;;4.43;3.72;;;12.50;99.90;;;;;;5022344;28;20472;-43
2022/05/31 06:48:53;;;;;;;6.45;4.03;;;12.80;99.90;;;;;;5031299;28;20045;-43
2022/05/31 06:56:58;;;;;;;8.70;3.75;;;13.30;99.90;;;;;;5031154;28;20111;-43
2022/05/31 06:59:24;;;;;;;4.60;3.10;;;13.60;99.90;;;;;;5031165;28;20407;-44
2022/05/31 07:01:49;;;;;;;4.25;3.00;;;13.90;99.90;;;;;;5030751;28;20045;-43
2022/05/31 07:04:15;;;;;;;4.35;3.15;;;14.30;99.90;;;;;;5029526;28;20116;-45
2022/05/31 07:06:41;;;;;;;5.05;2.95;;;15.10;99.90;;;;;;5027697;28;20066;-44
2022/05/31 07:09:07;;;;;;;5.78;2.97;;;15.70;99.90;;;;;;5020277;28;20392;-44
2022/05/31 07:11:33;;;;;;;5.18;3.13;;;16.40;99.90;;;;;;5028727;28;20049;-43
2022/05/31 07:14:00;;;;;;;4.32;3.05;;;17.30;99.90;;;;;;5029942;28;20087;-44
2022/05/31 07:16:26;;;;;;;5.20;2.72;;;18.00;99.90;;;;;;5029781;28;20057;-45
2022/05/31 07:18:52;;;;;;;3.83;2.60;;;18.40;99.90;;;;;;5023506;28;20030;-44
2022/05/31 07:21:18;;;;;;;6.07;2.60;;;18.40;98.90;;;;;;5018781;28;20530;-44
2022/05/31 07:23:44;;;;;;;3.80;2.50;;;18.60;96.90;;;;;;5020534;28;20033;-44
2022/05/31 07:26:12;;;;;;;5.95;2.20;;;19.00;96.40;;;;;;5024501;28;20038;-44
2022/05/31 07:28:37;;;;;;;4.22;2.40;;;20.10;99.90;;;;;;5031306;28;20049;-45
2022/05/31 07:31:03;;;;;;;3.30;1.90;;;20.80;92.30;;;;;;5031447;28;20401;-44
2022/05/31 07:33:29;;;;;;;4.75;2.35;;;23.10;86.00;;;;;;5031643;28;20542;-44
2022/05/31 07:35:55;;;;;;;2.75;1.90;;;23.70;84.10;;;;;;5031575;28;20067;-44
2022/05/31 07:38:21;;;;;;;3.22;1.70;;;24.90;78.00;;;;;;5031885;28;20046;-44
2022/05/31 07:40:50;;;;;;;3.05;1.75;;;26.00;74.90;;;;;;5032002;28;20120;-46
2022/05/31 07:43:16;;;;;;;2.60;1.73;;;26.80;70.70;;;;;;5031870;28;20048;-46
2022/05/31 07:45:42;;;;;;;7.47;2.40;;;27.90;69.70;;;;;;5032017;28;20401;-46
2022/05/31 07:48:08;;;;;;;5.65;1.67;;;29.10;67.00;;;;;;5031627;28;20048;-44
2022/05/31 07:50:35;;;;;;;2.95;1.55;;;29.90;62.10;;;;;;5030736;28;20477;-47
2022/05/31 07:53:01;;;;;;;3.60;1.70;;;30.40;60.80;;;;;;5031008;28;20038;-45
2022/05/31 07:55:28;;;;;;;3.00;1.25;;;30.70;59.50;;;;;;5031106;28;20041;-48
2022/05/31 08:00:39;;;;;;;4.15;1.08;;;31.20;56.40;;;;;;5030853;28;20045;-47
2022/05/31 08:03:06;;;;;;;2.22;1.00;;;31.10;53.70;;;;;;5031106;28;20400;-46
2022/05/31 08:05:31;;;;;;;2.50;0.90;;;31.10;55.10;;;;;;5030994;28;20412;-45
2022/05/31 08:07:57;;;;;;;6.28;1.42;;;31.50;54.30;;;;;;5031052;28;20053;-47
2022/05/31 08:10:23;;;;;;;2.22;0.90;;;32.20;51.70;;;;;;5031632;28;20126;-45
2022/05/31 08:12:49;;;;;;;2.50;0.90;;;32.50;50.90;;;;;;5030198;28;20049;-45
2022/05/31 08:15:15;;;;;;;4.88;1.20;;;32.80;49.30;;;;;;5031564;28;20393;-46
2022/05/31 08:17:43;;;;;;;5.05;1.48;;;32.80;49.00;;;;;;5031314;28;20453;-46
2022/05/31 08:20:09;;;;;;;4.90;1.55;;;33.00;48.20;;;;;;5031282;28;20136;-47
2022/05/31 08:22:35;;;;;;;2.70;1.08;;;33.30;48.40;;;;;;5033181;28;20064;-47
2022/05/31 08:25:02;;;;;;;6.28;1.20;;;33.60;45.80;;;;;;5033475;28;20041;-46
2022/05/31 08:27:28;;;;;;;3.75;1.17;;;33.30;45.40;;;;;;5034828;28;20103;-46
2022/05/31 08:29:54;;;;;;;2.47;1.08;;;33.10;45.70;;;;;;5034675;28;20041;-47
2022/05/31 08:32:20;;;;;;;2.80;1.25;;;32.70;44.40;;;;;;5034567;28;20092;-46
2022/05/31 08:34:47;;;;;;;4.60;1.52;;;31.90;44.40;;;;;;5034813;28;20045;-47
2022/05/31 08:37:13;;;;;;;4.05;1.13;;;31.00;45.10;;;;;;5034986;28;20053;-49
2022/05/31 08:39:39;;;;;;;5.22;1.20;;;30.80;46.00;;;;;;5034594;28;20112;-46
2022/05/31 08:42:16;;;;;;;3.58;0.90;;;30.60;47.10;;;;;;5034694;28;20540;-47
2022/05/31 08:44:50;;;;;;;2.15;0.80;;;31.40;46.60;;;;;;5034167;28;20503;-46
2022/05/31 08:47:57;;;;;;;5.28;0.85;;;31.90;44.90;;;;;;5034014;28;20041;-47
2022/05/31 08:53:26;;;;;;;2.22;0.70;;;33.50;44.70;;;;;;5033856;28;20102;-47
2022/05/31 08:59:10;;;;;;;4.30;0.88;;;35.30;40.80;;;;;;5034001;28;20100;-47
2022/05/31 09:01:49;;;;;;;2.58;0.80;;;35.60;39.60;;;;;;5033379;28;20525;-48
2022/05/31 09:04:38;;;;;;;3.70;0.90;;;35.10;39.50;;;;;;5034107;28;20037;-47
2022/05/31 09:07:08;;;;;;;3.60;1.10;;;34.60;38.70;;;;;;5033269;28;20056;-48
2022/05/31 09:09:39;;;;;;;3.08;0.90;;;34.20;40.20;;;;;;5028628;28;20096;-47
2022/05/31 09:12:25;;;;;;;;;;;33.90;39.40;;;;;;5013939;28;20124;-47
2022/05/31 09:15:02;;;;;;;3.63;0.55;;;34.20;44.60;;;;;;5013025;28;19964;-47
2022/05/31 09:18:28;;;;;;;2.47;0.50;;;34.20;38.90;;;;;;5013961;28;20458;-46
2022/05/31 09:21:01;;;;;;;2.15;0.70;;;33.60;39.60;;;;;;5012101;28;20623;-46
2022/05/31 09:23:35;;;;;;;4.60;0.95;;;32.70;38.30;;;;;;5014187;28;20057;-46
2022/05/31 09:26:26;;;;;;;1.95;0.68;;;32.70;41.20;;;;;;5013375;28;20042;-46
2022/05/31 09:29:16;;;;;;;4.80;0.65;;;32.20;39.90;;;;;;5013790;28;20048;-48
2022/05/31 09:31:47;;;;;;;3.78;0.77;;;32.30;38.40;;;;;;5012468;28;20125;-46
2022/05/31 09:34:13;;;;;;;2.85;0.70;;;32.50;38.10;;;;;;5012041;28;20484;-48
2022/05/31 09:37:04;;;;;;;4.35;0.95;;;32.60;38.90;;;;;;5013002;28;20052;-47
2022/05/31 09:39:45;;;;;;;3.63;1.20;;;31.70;39.30;;;;;;5013469;28;20385;-46
2022/05/31 09:42:20;;;;;;;5.27;1.00;;;30.70;39.70;;;;;;5012691;28;20614;-46
2022/05/31 09:44:59;;;;;;;2.65;1.17;;;30.50;42.30;;;;;;5012950;28;20359;-47
2022/05/31 09:47:26;;;;;;;2.58;1.00;;;31.00;41.30;;;;;;5013418;28;20041;-46
2022/05/31 09:49:53;;;;;;;2.53;0.75;;;30.80;39.90;;;;;;5012583;28;20041;-46
2022/05/31 09:52:43;;;;;;;3.05;0.70;;;30.50;41.20;;;;;;5012761;28;20038;-46
2022/05/31 09:58:18;;;;;;;3.15;0.90;;;28.90;42.90;;;;;;5012597;28;20593;-45
2022/05/31 10:01:02;;;;;;;1.92;0.60;;;26.90;42.80;;;;;;5010929;28;20477;-46
2022/05/31 10:03:44;;;;;;;3.80;0.80;;;26.80;43.50;;;;;;5012193;28;20493;-45
2022/05/31 10:06:22;;;;;;;2.45;0.85;;;26.00;44.10;;;;;;5012579;28;20038;-46
2022/05/31 10:08:53;;;;;;;3.83;1.05;;;25.20;46.80;;;;;;5012231;28;20046;-45
2022/05/31 10:11:32;;;;;;;2.65;1.05;;;24.40;46.90;;;;;;5012611;28;20465;-46
2022/05/31 10:14:20;;;;;;;3.28;1.25;;;23.70;47.50;;;;;;5012125;28;20044;-46
2022/05/31 10:16:49;;;;;;;4.65;1.40;;;23.00;48.70;;;;;;5012427;28;20565;-45
2022/05/31 10:19:30;;;;;;;2.47;1.23;;;22.40;49.80;;;;;;5012239;28;20038;-46
2022/05/31 10:22:13;;;;;;;5.32;1.25;;;21.90;50.50;;;;;;5012303;28;20080;-44
2022/05/31 10:24:39;;;;;;;3.28;0.93;;;21.50;51.60;;;;;;5012417;28;20038;-46
2022/05/31 10:27:11;;;;;;;2.80;0.82;;;21.00;51.50;;;;;;5011677;28;20543;-45
2022/05/31 10:29:50;;;;;;;4.15;1.55;;;20.90;52.20;;;;;;5011861;28;20045;-44
2022/05/31 10:32:32;;;;;;;4.65;1.00;;;20.90;52.20;;;;;;5011621;28;20050;-47
2022/05/31 10:35:38;;;;;;;3.47;1.20;;;21.00;53.60;;;;;;5011092;28;20040;-45
2022/05/31 10:38:15;;;;;;;2.25;0.80;;;21.10;51.90;;;;;;5008590;28;20116;-44
2022/05/31 10:40:55;;;;;;;3.38;0.77;;;21.00;52.40;;;;;;5008717;28;20121;-46
2022/05/31 10:43:30;;;;;;;1.85;0.80;;;21.00;53.70;;;;;;5010624;28;20054;-45
2022/05/31 10:45:57;;;;;;;3.10;0.73;;;21.10;52.80;;;;;;5011128;28;20053;-44
2022/05/31 10:48:24;;;;;;;3.90;0.80;;;21.00;52.80;;;;;;5010939;28;20509;-44
2022/05/31 10:51:05;;;;;;;2.83;0.85;;;20.90;52.30;;;;;;5011518;28;20049;-45
2022/05/31 10:53:40;;;;;;;3.75;1.20;;;20.80;50.80;;;;;;5011264;28;20053;-45
2022/05/31 10:56:17;;;;;;;3.30;0.93;;;20.80;50.90;;;;;;5010688;28;20108;-46
2022/05/31 10:58:52;;;;;;;8.15;0.80;;;20.80;51.40;;;;;;5011270;28;20121;-44
2022/05/31 11:01:49;;;;;;;6.30;1.05;;;21.00;52.90;;;;;;5010921;28;20120;-45
2022/05/31 11:04:21;;;;;;;6.57;1.33;;;21.20;52.60;;;;;;5010754;28;20125;-46
2022/05/31 11:07:05;;;;;;;2.45;0.85;;;21.40;51.50;;;;;;5011023;28;20061;-45
2022/05/31 11:12:56;;;;;;;1.58;0.47;;;22.20;49.90;;;;;;5030499;28;20057;-44
2022/05/31 11:15:45;;;;;;;3.35;1.08;;;22.40;51.40;;;;;;5030229;28;20048;-47
2022/05/31 11:19:04;;;;;;;1.70;0.73;;;22.60;49.20;;;;;;5029429;28;20129;-45
2022/05/31 11:21:41;;;;;;;3.85;0.77;;;23.00;49.00;;;;;;5027641;28;20412;-44
2022/05/31 11:24:20;;;;;;;5.43;1.02;;;23.20;50.80;;;;;;5030292;28;20048;-45
2022/05/31 11:27:10;;;;;;;4.18;0.90;;;23.20;49.60;;;;;;5030414;28;20065;-45
2022/05/31 11:29:50;;;;;;;2.88;1.20;;;23.30;48.20;;;;;;5030592;28;20091;-44
2022/05/31 11:32:29;;;;;;;3.88;0.85;;;23.10;48.20;;;;;;5030370;28;20037;-45
2022/05/31 11:35:03;;;;;;;3.35;1.02;;;22.90;47.50;;;;;;5030376;28;20041;-45
2022/05/31 11:37:52;;;;;;;3.17;0.90;;;22.80;47.20;;;;;;5030166;28;20103;-45
2022/05/31 11:40:26;;;;;;;6.00;0.90;;;22.20;45.70;;;;;;5030218;28;20448;-45
2022/05/31 11:43:25;;;;;;;2.00;0.60;;;21.90;48.50;;;;;;5030440;28;20038;-46
2022/05/31 11:45:54;;;;;;;3.92;1.02;;;21.60;49.00;;;;;;5030061;28;20122;-45
2022/05/31 11:48:22;;;;;;;3.20;0.90;;;21.10;48.90;;;;;;5028395;28;20084;-44
2022/05/31 11:51:09;;;;;;;3.83;0.90;;;21.00;49.10;;;;;;5029829;28;20534;-44
2022/05/31 11:53:43;;;;;;;2.70;0.80;;;20.90;49.50;;;;;;5030127;28;20045;-46
2022/05/31 11:56:38;;;;;;;3.95;1.30;;;20.70;49.70;;;;;;5029751;28;20042;-44
2022/05/31 11:59:23;;;;;;;2.90;1.00;;;20.60;49.80;;;;;;5033487;28;20611;-49
2022/05/31 12:01:50;;;;;;;3.15;1.00;;;20.60;49.60;;;;;;5034071;28;20489;-48
2022/05/31 12:04:47;;;;;;;2.92;1.10;;;20.80;48.40;;;;;;5033627;28;20106;-45
2022/05/31 12:07:18;;;;;;;2.33;0.50;;;21.00;48.40;;;;;;5033949;28;20062;-44
2022/05/31 12:10:07;;;;;;;2.13;0.75;;;21.10;49.40;;;;;;5034245;28;20144;-44
2022/05/31 12:12:35;;;;;;;3.00;1.08;;;21.20;50.90;;;;;;5034125;28;20045;-44
2022/05/31 12:15:21;;;;;;;2.95;0.70;;;21.00;50.20;;;;;;5034093;28;20049;-45
2022/05/31 12:17:58;;;;;;;3.42;0.77;;;20.90;52.80;;;;;;5033638;28;20107;-45
2022/05/31 12:20:34;;;;;;;2.50;0.77;;;20.80;52.70;;;;;;5033383;28;20041;-45
2022/05/31 12:23:22;;;;;;;3.40;0.95;;;20.60;53.10;;;;;;5033763;28;20037;-44
2022/05/31 12:25:52;;;;;;;3.08;0.80;;;20.50;53.10;;;;;;5033267;28;20045;-45
2022/05/31 12:28:22;;;;;;;4.55;1.35;;;20.60;52.80;;;;;;5033331;28;20045;-49
2022/05/31 12:31:23;;;;;;;5.38;1.55;;;20.80;51.70;;;;;;5033387;28;20045;-44
2022/05/31 12:33:49;;;;;;;2.97;0.98;;;20.90;50.10;;;;;;5033389;28;20048;-44
2022/05/31 12:36:23;;;;;;;4.63;1.50;;;20.90;50.10;;;;;;5033220;28;20042;-44
2022/05/31 12:39:08;;;;;;;4.35;1.00;;;20.90;49.10;;;;;;5033496;28;20056;-45
2022/05/31 12:41:45;;;;;;;4.65;1.70;;;20.90;49.80;;;;;;5033530;28;20041;-44
2022/05/31 12:44:28;;;;;;;4.88;1.38;;;20.90;48.20;;;;;;5033212;28;20107;-45
2022/05/31 12:46:55;;;;;;;2.75;1.08;;;20.80;50.80;;;;;;5033668;28;20566;-46
2022/05/31 12:49:26;;;;;;;2.78;1.02;;;20.70;50.60;;;;;;5033083;28;20421;-44
2022/05/31 12:54:50;;;;;;;3.65;2.13;;;20.30;50.00;;;;;;5033049;28;20369;-45
2022/05/31 12:57:19;;;;;;;4.68;1.52;;;20.00;52.40;;;;;;5032773;28;20057;-43
2022/05/31 12:59:48;;;;;;;5.28;1.83;;;19.70;55.60;;;;;;5032784;28;20459;-45
2022/05/31 13:02:36;;;;;;;2.85;1.30;;;19.50;55.70;;;;;;5032823;28;20063;-44
2022/05/31 13:05:08;;;;;;;4.65;1.77;;;19.30;56.20;;;;;;5032675;28;20037;-45
2022/05/31 13:07:45;;;;;;;3.85;1.55;;;;;;;;;;5032078;28;20088;-44
2022/05/31 13:10:37;;;;;;;3.78;1.55;;;;;;;;;;5021641;28;20485;-45
2022/05/31 13:21:29;;;;;;;2.72;1.23;;;18.50;76.80;;;;;;5012629;28;20080;-43
2022/05/31 13:23:56;;;;;;;2.58;1.55;;;18.20;55.90;;;;;;5012970;28;20545;-44
2022/05/31 13:26:30;;;;;;;4.65;1.60;;;18.20;54.60;;;;;;5012250;28;20485;-43
2022/05/31 13:29:00;;;;;;;4.40;1.40;;;18.10;52.90;;;;;;5012567;28;20050;-44
2022/05/31 13:31:29;;;;;;;3.95;1.65;;;18.00;52.70;;;;;;5012682;28;20072;-44
2022/05/31 13:33:57;;;;;;;2.88;1.50;;;17.80;52.00;;;;;;5012762;28;20121;-46
2022/05/31 13:36:26;;;;;;;4.35;1.27;;;17.80;52.70;;;;;;5012409;28;20077;-45
2022/05/31 13:39:05;;;;;;;3.05;1.08;;;17.70;53.50;;;;;;5011979;28;20042;-44
2022/05/31 13:41:32;;;;;;;3.38;1.35;;;17.60;53.40;;;;;;5012228;28;20389;-45
2022/05/31 13:44:02;;;;;;;3.72;1.55;;;17.60;54.80;;;;;;5012327;28;20042;-43
2022/05/31 13:46:30;;;;;;;4.90;2.13;;;17.50;54.90;;;;;;5011959;28;20042;-45
2022/05/31 13:49:34;;;;;;;2.97;1.30;;;17.50;55.00;;;;;;5012429;28;20370;-45
2022/05/31 13:52:16;;;;;;;4.88;1.83;;;17.50;55.10;;;;;;5012253;28;20095;-44